createdAt,value
2024-05-09T00:03:02.945Z,79.60
2024-05-09T00:06:05.944Z,80.91
2024-05-09T00:09:11.190Z,83.17
2024-05-09T00:12:13.896Z,82.37
2024-05-09T00:15:16.560Z,81.73
2024-05-09T00:18:19.068Z,81.59
2024-05-09T00:21:21.624Z,80.89
2024-05-09T00:24:28.651Z,84.34
2024-05-09T00:27:31.036Z,84.29
2024-05-09T00:30:36.135Z,83.42
2024-05-09T00:33:39.806Z,83.03
2024-05-09T00:36:42.250Z,81.85
2024-05-09T00:39:47.496Z,82.45
2024-05-09T00:42:49.988Z,82.60
2024-05-09T00:45:53.740Z,82.75
2024-05-09T00:48:56.503Z,82.41
2024-05-09T00:51:59.786Z,81.71
2024-05-09T00:55:08.235Z,81.64
2024-05-09T00:58:13.097Z,81.58
2024-05-09T01:01:20.789Z,81.22
2024-05-09T01:04:23.296Z,81.81
2024-05-09T01:07:26.465Z,82.11
2024-05-09T01:10:34.899Z,82.36
2024-05-09T01:13:40.316Z,82.17
2024-05-09T01:16:42.929Z,82.02
2024-05-09T01:19:45.945Z,81.20
2024-05-09T01:22:48.487Z,81.37
2024-05-09T01:25:53.534Z,82.75
2024-05-09T01:28:56.023Z,81.82
2024-05-09T01:31:59.866Z,80.06
2024-05-09T01:35:02.496Z,83.52
2024-05-09T01:38:05.725Z,82.13
2024-05-09T01:41:10.991Z,85.58
2024-05-09T01:44:13.611Z,85.46
2024-05-09T01:47:16.420Z,84.12
2024-05-09T01:50:25.311Z,84.41
2024-05-09T01:53:35.952Z,85.19
2024-05-09T01:56:41.079Z,86.09
2024-05-09T01:59:43.507Z,86.86
2024-05-09T02:02:46.574Z,86.68
2024-05-09T02:05:50.174Z,86.67
2024-05-09T02:08:52.813Z,89.15
2024-05-09T02:11:57.815Z,88.70
2024-05-09T02:15:00.352Z,90.55
2024-05-09T02:18:02.872Z,91.54
2024-05-09T02:21:05.929Z,91.24
2024-05-09T02:24:08.259Z,90.77
2024-05-09T02:27:13.305Z,91.70
2024-05-09T02:30:22.847Z,92.88
2024-05-09T02:33:34.111Z,90.38
2024-05-09T02:36:36.491Z,90.36
2024-05-09T02:39:38.919Z,89.51
2024-05-09T02:42:43.891Z,90.73
2024-05-09T02:45:46.405Z,91.26
2024-05-09T02:48:48.839Z,91.62
2024-05-09T02:51:51.351Z,91.68
2024-05-09T02:54:53.926Z,91.73
2024-05-09T02:57:58.970Z,92.95
2024-05-09T03:01:02.007Z,91.59
2024-05-09T03:04:04.718Z,89.74
2024-05-09T03:07:08.560Z,88.57
2024-05-09T03:10:18.336Z,87.43
2024-05-09T03:13:27.591Z,88.17
2024-05-09T03:16:30.074Z,89.72
2024-05-09T03:19:32.552Z,90.51
2024-05-09T03:22:35.073Z,91.90
2024-05-09T03:25:37.661Z,92.20
2024-05-09T03:28:42.817Z,91.48
2024-05-09T03:31:45.331Z,91.44
2024-05-09T03:34:48.046Z,91.58
2024-05-09T03:37:50.432Z,90.51
2024-05-09T03:40:53.188Z,89.58
2024-05-09T03:43:58.536Z,88.12
2024-05-09T03:47:01.089Z,87.29
2024-05-09T03:50:05.620Z,87.87
2024-05-09T03:53:11.191Z,89.24
2024-05-09T03:56:13.888Z,88.30
2024-05-09T03:59:19.298Z,87.12
2024-05-09T04:02:22.026Z,85.98
2024-05-09T04:05:25.669Z,85.65
2024-05-09T04:08:28.776Z,87.94
2024-05-09T04:11:31.423Z,89.14
2024-05-09T04:14:36.616Z,88.41
2024-05-09T04:17:39.312Z,90.63
2024-05-09T04:20:41.987Z,91.45
2024-05-09T04:23:44.540Z,91.17
2024-05-09T04:26:46.956Z,93.62
2024-05-09T04:29:51.956Z,92.32
2024-05-09T04:32:54.732Z,92.52
2024-05-09T04:35:57.172Z,92.58
2024-05-09T04:38:59.600Z,92.10
2024-05-09T04:42:01.987Z,92.46
2024-05-09T04:45:07.796Z,91.48
2024-05-09T04:48:10.974Z,90.25
2024-05-09T04:51:13.716Z,87.34
2024-05-09T04:54:26.324Z,88.40
2024-05-09T04:57:36.423Z,88.13
2024-05-09T05:00:41.904Z,86.37
2024-05-09T05:03:44.793Z,85.61
2024-05-09T05:06:47.288Z,83.95
2024-05-09T05:09:49.772Z,85.48
2024-05-09T05:13:11.305Z,86.23
2024-05-09T05:16:17.302Z,88.79
2024-05-09T05:19:19.868Z,89.43
2024-05-09T05:22:22.596Z,90.95
2024-05-09T05:25:26.867Z,94.73
2024-05-09T05:28:29.382Z,97.60
2024-05-09T05:31:34.485Z,98.64
2024-05-09T05:34:36.910Z,98.38
2024-05-09T05:37:39.351Z,98.33
2024-05-09T05:40:42.123Z,98.19
2024-05-09T05:43:44.564Z,98.42
2024-05-09T05:46:50.885Z,98.73
2024-05-09T05:49:55.391Z,98.93
2024-05-09T05:52:57.882Z,97.22
2024-05-09T05:56:00.475Z,95.54
2024-05-09T05:59:02.946Z,94.88
2024-05-09T06:02:09.646Z,94.90
2024-05-09T06:05:12.333Z,96.26
2024-05-09T06:08:15.263Z,94.98
2024-05-09T06:11:17.971Z,94.76
2024-05-09T06:14:20.770Z,93.53
2024-05-09T06:17:26.168Z,95.18
2024-05-09T06:20:35.577Z,97.49
2024-05-09T06:23:46.177Z,95.16
2024-05-09T06:26:48.565Z,94.77
2024-05-09T06:29:51.090Z,88.62
2024-05-09T06:32:56.289Z,85.40
2024-05-09T06:35:59.649Z,84.98
2024-05-09T06:39:02.246Z,85.57
2024-05-09T06:42:05.030Z,84.83
2024-05-09T06:45:07.794Z,82.13
2024-05-09T06:48:15.775Z,80.13
2024-05-09T06:51:21.754Z,72.88
2024-05-09T06:54:24.322Z,75.82
2024-05-09T06:57:30.029Z,72.57
2024-05-09T07:00:38.776Z,75.44
2024-05-09T07:03:46.446Z,77.66
2024-05-09T07:06:48.867Z,86.52
2024-05-09T07:09:51.383Z,85.08
2024-05-09T07:12:53.851Z,81.31
2024-05-09T07:15:56.439Z,85.62
2024-05-09T07:19:01.795Z,85.78
2024-05-09T07:22:04.750Z,84.96
2024-05-09T07:25:07.507Z,79.10
2024-05-09T07:28:11.828Z,82.91
2024-05-09T07:31:15.168Z,83.53
2024-05-09T07:34:20.692Z,79.91
2024-05-09T07:37:23.386Z,76.92
2024-05-09T07:40:33.102Z,75.36
2024-05-09T07:43:38.792Z,75.96
2024-05-09T07:51:32.799Z,74.22
2024-05-09T07:53:37.597Z,64.38
2024-05-09T07:56:37.088Z,69.10
2024-05-09T07:59:39.587Z,65.37
2024-05-09T08:02:42.213Z,63.78
2024-05-09T08:05:47.260Z,66.58
2024-05-09T08:08:49.790Z,65.82
2024-05-09T08:11:52.896Z,69.21
2024-05-09T08:14:56.447Z,64.23
2024-05-09T08:17:59.555Z,59.77
2024-05-09T08:21:05.112Z,61.50
2024-05-09T08:24:07.562Z,64.13
2024-05-09T08:27:10.119Z,61.91
2024-05-09T08:30:21.346Z,62.32
2024-05-09T08:33:27.784Z,61.59
2024-05-09T08:36:32.933Z,62.53
2024-05-09T08:39:35.362Z,59.52
2024-05-09T08:42:45.452Z,60.56
2024-05-09T08:45:50.234Z,61.96
2024-05-09T08:48:55.934Z,62.16
2024-05-09T08:52:01.238Z,58.50
2024-05-09T08:55:04.154Z,61.63
2024-05-09T08:58:08.033Z,56.44
2024-05-09T09:01:13.195Z,61.31
2024-05-09T09:04:17.614Z,60.14
2024-05-09T09:07:23.214Z,61.22
2024-05-09T09:10:31.982Z,62.15
2024-05-09T09:13:35.675Z,58.91
2024-05-09T09:16:41.206Z,60.34
2024-05-09T09:19:44.475Z,56.34
2024-05-09T09:22:50.708Z,57.09
2024-05-09T09:25:59.546Z,56.86
2024-05-09T09:29:05.515Z,56.54
2024-05-09T09:32:13.063Z,56.82
2024-05-09T09:35:15.636Z,59.71
2024-05-09T09:38:23.963Z,55.99
2024-05-09T09:41:30.850Z,55.04
2024-05-09T09:44:34.240Z,53.64
2024-05-09T09:47:41.509Z,56.09
2024-05-09T09:50:45.961Z,56.48
2024-05-09T09:53:53.446Z,57.48
2024-05-09T09:56:57.055Z,54.35
2024-05-09T10:00:00.368Z,55.09
2024-05-09T10:03:03.245Z,52.78
2024-05-09T10:06:07.513Z,52.49
2024-05-09T10:09:16.512Z,52.30
2024-05-09T10:12:21.644Z,51.79
2024-05-09T10:15:26.714Z,53.23
2024-05-09T10:18:37.107Z,53.49
2024-05-09T10:21:47.401Z,51.53
2024-05-09T10:24:54.283Z,49.08
2024-05-09T10:27:56.985Z,49.63
2024-05-09T10:31:04.038Z,47.93
2024-05-09T10:34:06.825Z,51.06
2024-05-09T10:37:10.700Z,48.03
2024-05-09T10:40:26.585Z,47.25
2024-05-09T10:43:34.575Z,48.46
2024-05-09T10:46:37.425Z,49.45
2024-05-09T10:49:40.301Z,49.69
2024-05-09T10:52:42.929Z,49.60
2024-05-09T10:55:58.392Z,50.25
2024-05-09T10:59:04.221Z,49.92
2024-05-09T11:02:08.108Z,48.31
2024-05-09T11:05:11.225Z,49.81
2024-05-09T11:08:14.180Z,46.68
2024-05-09T11:11:19.695Z,47.95
2024-05-09T11:14:22.359Z,49.98
2024-05-09T11:17:25.359Z,48.66
2024-05-09T11:20:35.571Z,49.18
2024-05-09T11:23:38.826Z,50.04
2024-05-09T11:26:44.073Z,50.83
2024-05-09T11:29:47.578Z,52.15
2024-05-09T11:32:50.212Z,51.83
2024-05-09T11:35:55.020Z,52.56
2024-05-09T11:39:00.429Z,52.63
2024-05-09T11:42:06.372Z,49.53
2024-05-09T11:45:09.281Z,49.89
2024-05-09T11:48:12.027Z,47.90
2024-05-09T11:51:14.769Z,47.06
2024-05-09T11:54:17.522Z,48.93
2024-05-09T11:57:24.553Z,47.41
2024-05-09T12:00:34.112Z,46.01
2024-05-09T12:03:40.029Z,47.84
2024-05-09T12:06:42.779Z,49.55
2024-05-09T12:09:45.514Z,49.74
2024-05-09T12:12:50.803Z,52.64
2024-05-09T12:15:54.469Z,45.06
2024-05-09T12:18:57.185Z,47.15
2024-05-09T12:22:00.056Z,48.70
2024-05-09T12:25:04.944Z,46.76
2024-05-09T12:28:10.580Z,42.42
2024-05-09T12:31:13.308Z,44.17
2024-05-09T12:34:16.412Z,45.84
2024-05-09T12:37:19.493Z,43.40
2024-05-09T12:40:30.754Z,47.27
2024-05-09T12:43:40.149Z,47.13
2024-05-09T12:46:42.815Z,44.98
2024-05-09T12:49:45.529Z,46.93
2024-05-09T12:52:48.069Z,46.72
2024-05-09T12:55:56.849Z,46.08
2024-05-09T12:59:05.366Z,47.10
2024-05-09T13:02:09.764Z,48.24
2024-05-09T13:05:14.361Z,49.15
2024-05-09T13:08:17.213Z,49.74
2024-05-09T13:11:19.856Z,47.59
2024-05-09T13:14:25.079Z,45.28
2024-05-09T13:17:27.830Z,43.96
2024-05-09T13:20:33.870Z,44.83
2024-05-09T13:23:38.148Z,45.42
2024-05-09T13:26:40.826Z,42.28
2024-05-09T13:29:46.101Z,42.94
2024-05-09T13:32:49.153Z,45.72
2024-05-09T13:35:51.855Z,46.59
2024-05-09T13:38:56.656Z,48.61
2024-05-09T13:41:59.183Z,48.20
2024-05-09T13:45:06.922Z,49.52
2024-05-09T13:48:12.278Z,49.38
2024-05-09T13:51:14.997Z,49.83
2024-05-09T13:54:22.345Z,47.64
2024-05-09T13:57:25.454Z,47.74
2024-05-09T14:00:42.402Z,44.77
2024-05-09T14:03:49.921Z,44.87
2024-05-09T14:06:53.238Z,45.97
2024-05-09T14:09:55.901Z,45.37
2024-05-09T14:12:58.579Z,44.87
2024-05-09T14:16:04.068Z,42.29
2024-05-09T14:19:06.768Z,42.50
2024-05-09T14:22:09.539Z,40.06
2024-05-09T14:25:14.982Z,39.67
2024-05-09T14:28:18.571Z,40.59
2024-05-09T14:31:23.793Z,41.87
2024-05-09T14:34:27.274Z,43.72
2024-05-09T14:37:30.060Z,46.73
2024-05-09T14:43:39.291Z,43.01
2024-05-09T14:46:44.604Z,45.50
2024-05-09T14:49:47.150Z,45.73
2024-05-09T14:52:49.908Z,43.37
2024-05-09T14:55:52.391Z,45.38
2024-05-09T14:58:57.126Z,45.40
2024-05-09T15:02:02.528Z,45.79
2024-05-09T15:05:07.170Z,40.65
2024-05-09T15:08:09.820Z,44.16
2024-05-09T15:11:12.448Z,39.27
2024-05-09T15:14:15.985Z,38.96
2024-05-09T15:17:21.248Z,39.26
2024-05-09T15:20:31.454Z,40.17
2024-05-09T15:23:37.822Z,38.64
2024-05-09T15:26:40.379Z,43.41
2024-05-09T15:29:43.219Z,39.39
2024-05-09T15:32:48.435Z,40.74
2024-05-09T15:35:51.759Z,41.79
2024-05-09T15:38:55.697Z,40.67
2024-05-09T15:41:58.362Z,41.69
2024-05-09T15:45:01.051Z,40.91
2024-05-09T15:48:07.255Z,41.38
2024-05-09T15:51:09.995Z,43.23
2024-05-09T15:54:12.606Z,44.09
2024-05-09T15:57:15.362Z,40.90
2024-05-09T16:00:25.108Z,40.47
2024-05-09T16:03:39.268Z,42.31
2024-05-09T16:06:41.916Z,41.68
2024-05-09T16:09:44.534Z,41.70
2024-05-09T16:12:47.109Z,41.73
2024-05-09T16:15:52.071Z,42.61
2024-05-09T16:18:57.345Z,42.88
2024-05-09T16:22:00.419Z,43.92
2024-05-09T16:25:03.131Z,43.79
2024-05-09T16:28:09.884Z,43.26
2024-05-09T16:31:13.452Z,44.96
2024-05-09T16:34:18.892Z,43.97
2024-05-09T16:37:21.479Z,45.94
2024-05-09T16:40:33.077Z,46.12
2024-05-09T16:43:39.852Z,46.13
2024-05-09T16:46:43.466Z,46.17
2024-05-09T16:49:48.957Z,46.23
2024-05-09T16:52:51.447Z,45.73
2024-05-09T16:55:54.246Z,46.71
2024-05-09T16:58:56.819Z,46.41
2024-05-09T17:01:59.559Z,47.87
2024-05-09T17:05:06.458Z,48.85
2024-05-09T17:08:09.439Z,48.98
2024-05-09T17:11:13.334Z,49.46
2024-05-09T17:14:15.900Z,50.51
2024-05-09T17:17:19.157Z,51.83
2024-05-09T17:20:31.799Z,51.88
2024-05-09T17:23:40.199Z,50.79
2024-05-09T17:26:42.674Z,49.28
2024-05-09T17:29:47.984Z,51.10
2024-05-09T17:32:50.493Z,52.06
2024-05-09T17:35:55.606Z,51.07
2024-05-09T17:38:58.218Z,51.06
2024-05-09T17:42:06.506Z,53.88
2024-05-09T17:45:11.688Z,52.55
2024-05-09T17:48:14.432Z,52.68
2024-05-09T17:51:20.697Z,53.46
2024-05-09T17:54:23.300Z,53.99
2024-05-09T17:57:26.258Z,54.55
2024-05-09T18:00:37.020Z,54.60
2024-05-09T18:03:43.867Z,55.84
2024-05-09T18:06:48.996Z,56.31
2024-05-09T18:09:51.592Z,57.24
2024-05-09T18:12:54.143Z,57.99
2024-05-09T18:15:56.769Z,58.80
2024-05-09T18:19:00.109Z,59.38
2024-05-09T18:22:05.951Z,59.47
2024-05-09T18:25:08.529Z,60.67
2024-05-09T18:28:11.276Z,60.96
2024-05-09T18:31:15.775Z,61.58
2024-05-09T18:34:18.472Z,61.66
2024-05-09T18:37:24.331Z,62.73
2024-05-09T18:40:33.684Z,63.52
2024-05-09T18:43:44.917Z,62.65
2024-05-09T18:46:48.341Z,64.23
2024-05-09T18:49:51.075Z,64.30
2024-05-09T18:52:59.582Z,65.05
2024-05-09T18:56:02.110Z,65.58
2024-05-09T18:59:04.655Z,65.85
2024-05-09T19:02:07.472Z,66.93
2024-05-09T19:05:10.229Z,67.32
2024-05-09T19:08:15.853Z,67.44
2024-05-09T19:11:18.419Z,68.55
2024-05-09T19:14:20.904Z,70.80
2024-05-09T19:17:23.435Z,70.09
2024-05-09T19:20:31.958Z,70.38
2024-05-09T19:23:46.856Z,70.53
2024-05-09T19:26:53.262Z,70.44
2024-05-09T19:29:57.642Z,70.74
2024-05-09T19:33:00.461Z,71.38
2024-05-09T19:36:03.178Z,70.93
2024-05-09T19:39:08.224Z,71.55
2024-05-09T19:42:10.627Z,71.97
2024-05-09T19:45:13.293Z,72.22
2024-05-09T19:48:16.045Z,72.27
2024-05-09T19:51:18.469Z,72.85
2024-05-09T19:54:23.446Z,73.37
2024-05-09T19:57:25.903Z,73.40
2024-05-09T20:00:34.739Z,72.72
2024-05-09T20:03:38.616Z,72.97
2024-05-09T20:06:41.859Z,73.96
2024-05-09T20:09:46.853Z,74.37
2024-05-09T20:12:49.425Z,74.78
2024-05-09T20:15:51.987Z,74.62
2024-05-09T20:18:54.538Z,75.30
2024-05-09T20:21:59.288Z,75.50
2024-05-09T20:25:04.919Z,75.77
2024-05-09T20:28:08.008Z,75.43
2024-05-09T20:31:10.601Z,76.12
2024-05-09T20:34:13.079Z,76.34
2024-05-09T20:37:15.667Z,76.58
2024-05-09T20:40:28.691Z,77.49
2024-05-09T20:43:35.208Z,78.08
2024-05-09T20:46:37.555Z,78.91
2024-05-09T20:49:40.179Z,80.73
2024-05-09T20:52:42.642Z,80.41
2024-05-09T20:55:47.862Z,81.34
2024-05-09T20:58:50.336Z,81.91
2024-05-09T21:01:52.783Z,82.76
2024-05-09T21:04:55.473Z,83.87
2024-05-09T21:07:58.423Z,84.06
2024-05-09T21:11:03.432Z,86.34
2024-05-09T21:14:06.023Z,86.33
2024-05-09T21:17:08.640Z,87.53
2024-05-09T21:20:17.073Z,87.47
2024-05-09T21:23:22.794Z,88.72
2024-05-09T21:26:29.578Z,88.37
2024-05-09T21:29:32.051Z,89.83
2024-05-09T21:32:34.543Z,90.65
2024-05-09T21:35:37.170Z,91.97
2024-05-09T21:38:40.770Z,92.23
2024-05-09T21:41:45.867Z,92.93
2024-05-09T21:44:48.338Z,93.24
2024-05-09T21:47:50.924Z,93.32
2024-05-09T21:50:53.445Z,93.22
2024-05-09T21:53:58.346Z,94.20
2024-05-09T21:57:06.522Z,93.72
2024-05-09T22:00:27.916Z,93.69
2024-05-09T22:03:37.141Z,94.15
2024-05-09T22:06:39.708Z,94.83
2024-05-09T22:09:45.494Z,94.34
2024-05-09T22:12:50.659Z,93.82
2024-05-09T22:15:53.114Z,93.51
2024-05-09T22:18:55.711Z,93.76
2024-05-09T22:21:58.314Z,93.75
2024-05-09T22:25:01.303Z,93.79
2024-05-09T22:28:07.248Z,93.73
2024-05-09T22:31:09.808Z,94.78
2024-05-09T22:34:12.461Z,95.21
2024-05-09T22:37:14.899Z,95.86
2024-05-09T22:40:24.449Z,96.49
2024-05-09T22:43:38.260Z,96.87
2024-05-09T22:46:40.619Z,97.41
2024-05-09T22:49:43.003Z,98.44
2024-05-09T22:52:45.430Z,98.67
2024-05-09T22:55:47.849Z,99.32
2024-05-09T22:58:52.916Z,99.32
2024-05-09T23:01:55.485Z,98.79
2024-05-09T23:04:58.121Z,98.72
2024-05-09T23:08:01.142Z,99.13
2024-05-09T23:11:05.801Z,99.32
2024-05-09T23:14:11.123Z,99.44
2024-05-09T23:17:13.908Z,97.96
2024-05-09T23:20:22.091Z,98.61
2024-05-09T23:23:32.372Z,99.20
2024-05-09T23:26:34.884Z,100.00
2024-05-09T23:29:39.901Z,100.00
2024-05-09T23:32:42.329Z,100.00
2024-05-09T23:35:45.042Z,100.00
2024-05-09T23:38:47.518Z,100.00
2024-05-09T23:41:49.883Z,100.00
2024-05-09T23:44:55.039Z,100.00
2024-05-09T23:47:58.759Z,100.00
2024-05-09T23:51:01.260Z,100.00
2024-05-09T23:54:03.680Z,100.00
2024-05-09T23:57:06.280Z,100.00
